Time;durP1;ratioP1;P1;durP2;ratioP2;P2;SDS_P1;SDS_P2;PMS_P1;PMS_P2;Temp;Humidity;BMP_temperature;BMP_pressure;BME280_temperature;BME280_humidity;BME280_pressure;Samples;Min_cycle;Max_cycle;Signal;HPM_P1;HPM_P2
2023/03/08 00:01:43;;;;;;;8.60;1.42;;;15.70;67.20;;;;;;10455366;28;22151;-24
2023/03/08 00:06:45;;;;;;;3.33;1.10;;;15.70;67.20;;;;;;10451783;28;20132;-24
2023/03/08 00:11:48;;;;;;;6.50;1.30;;;15.60;68.00;;;;;;10457085;28;20095;-23
2023/03/08 00:16:50;;;;;;;8.00;1.67;;;15.60;67.70;;;;;;10451967;28;20040;-23
2023/03/08 00:21:52;;;;;;;4.87;1.20;;;15.50;68.00;;;;;;10452675;28;20124;-23
2023/03/08 00:26:55;;;;;;;4.10;1.00;;;15.60;67.70;;;;;;10452743;28;20394;-23
2023/03/08 00:31:57;;;;;;;9.00;1.38;;;15.50;68.20;;;;;;10454131;28;20072;-22
2023/03/08 00:36:59;;;;;;;3.73;0.90;;;15.60;67.30;;;;;;10453059;28;20128;-23
2023/03/08 00:42:02;;;;;;;6.90;1.30;;;15.50;67.70;;;;;;10451429;28;20073;-22
2023/03/08 00:47:04;;;;;;;8.60;1.23;;;15.60;67.50;;;;;;10449412;28;20124;-22
2023/03/08 00:52:06;;;;;;;6.27;1.43;;;15.40;68.90;;;;;;10452822;28;20045;-23
2023/03/08 00:57:09;;;;;;;4.47;0.82;;;15.50;67.90;;;;;;10448424;28;20044;-23
2023/03/08 01:02:11;;;;;;;4.45;1.67;;;15.40;68.10;;;;;;10453145;28;20799;-24
2023/03/08 01:07:13;;;;;;;3.77;1.17;;;15.50;67.90;;;;;;10452260;28;20461;-24
2023/03/08 01:12:20;;;;;;;5.30;1.67;;;15.40;68.40;;;;;;10451572;28;20045;-24
2023/03/08 01:17:22;;;;;;;4.68;0.80;;;15.40;68.30;;;;;;10453540;28;20040;-24
2023/03/08 01:22:24;;;;;;;4.20;0.87;;;15.40;68.00;;;;;;10452476;28;20536;-23
2023/03/08 01:27:27;;;;;;;4.57;1.40;;;15.40;67.40;;;;;;10452599;28;20033;-24
2023/03/08 01:32:29;;;;;;;3.08;0.80;;;15.30;68.30;;;;;;10449672;28;20041;-23
2023/03/08 01:37:31;;;;;;;6.35;1.60;;;15.40;68.10;;;;;;10452148;28;20083;-25
2023/03/08 01:42:37;;;;;;;5.72;1.00;;;15.40;67.90;;;;;;10450889;28;20542;-23
2023/03/08 01:47:39;;;;;;;3.33;1.23;;;15.40;67.60;;;;;;10456522;28;20436;-23
2023/03/08 01:52:47;;;;;;;1.50;0.50;;;15.30;68.20;;;;;;10451591;28;20071;-22
2023/03/08 01:57:54;;;;;;;1.48;0.82;;;15.30;67.40;;;;;;10453258;28;20072;-23
2023/03/08 02:02:59;;;;;;;2.60;0.68;;;15.30;67.80;;;;;;10454819;28;20763;-23
2023/03/08 02:08:01;;;;;;;4.28;0.80;;;15.40;67.20;;;;;;10446261;28;20069;-23
2023/03/08 02:13:06;;;;;;;4.63;0.50;;;15.20;68.00;;;;;;10447000;28;20063;-23
2023/03/08 02:18:08;;;;;;;4.18;0.90;;;15.20;68.00;;;;;;10452723;28;20076;-24
2023/03/08 02:23:12;;;;;;;1.47;0.60;;;15.20;68.50;;;;;;10448889;28;20618;-24
2023/03/08 02:28:14;;;;;;;2.17;0.60;;;15.20;68.00;;;;;;10449552;28;20135;-24
2023/03/08 02:33:17;;;;;;;1.73;0.60;;;15.20;67.70;;;;;;10450057;28;20489;-23
2023/03/08 02:38:21;;;;;;;0.70;0.40;;;15.30;66.90;;;;;;10449039;28;20108;-27
2023/03/08 02:43:23;;;;;;;2.97;0.50;;;15.30;66.90;;;;;;10439553;28;20065;-23
2023/03/08 02:48:25;;;;;;;2.90;0.47;;;15.20;67.40;;;;;;10448816;28;20098;-24
2023/03/08 02:53:29;;;;;;;2.17;0.60;;;15.20;67.40;;;;;;10449462;28;20095;-25
2023/03/08 02:58:30;;;;;;;5.30;0.85;;;15.30;66.50;;;;;;10446361;28;20086;-23
2023/03/08 03:03:32;;;;;;;1.43;0.53;;;15.20;66.60;;;;;;10454094;28;20128;-23
2023/03/08 03:08:36;;;;;;;1.57;0.40;;;15.30;66.30;;;;;;10445114;28;20149;-23
2023/03/08 03:13:38;;;;;;;2.08;0.60;;;15.10;67.30;;;;;;10444672;28;20693;-22
2023/03/08 03:18:40;;;;;;;1.60;0.67;;;15.20;67.40;;;;;;10446686;28;20335;-23
2023/03/08 03:23:43;;;;;;;1.57;0.60;;;15.10;67.40;;;;;;10448798;28;20375;-22
2023/03/08 03:28:45;;;;;;;1.48;0.45;;;15.10;67.50;;;;;;10451512;28;20480;-23
2023/03/08 03:33:48;;;;;;;2.95;0.60;;;15.10;66.90;;;;;;10455781;28;20103;-24
2023/03/08 03:38:51;;;;;;;1.00;0.50;;;15.10;67.10;;;;;;10469087;28;20140;-23
2023/03/08 03:43:53;;;;;;;4.75;0.50;;;15.00;67.40;;;;;;10455713;28;20057;-23
2023/03/08 03:48:55;;;;;;;0.70;0.40;;;14.90;67.70;;;;;;10454599;28;20139;-23
2023/03/08 03:53:59;;;;;;;1.17;0.47;;;15.10;67.10;;;;;;10454736;28;20048;-23
2023/03/08 03:59:00;;;;;;;0.75;0.50;;;15.00;68.40;;;;;;10456762;28;20596;-21
2023/03/08 04:04:03;;;;;;;1.27;0.63;;;15.10;66.90;;;;;;10457867;28;20048;-22
2023/03/08 04:09:08;;;;;;;0.75;0.40;;;15.00;67.40;;;;;;10455130;28;20252;-23
2023/03/08 04:14:10;;;;;;;1.30;0.40;;;15.00;67.60;;;;;;10449431;28;20049;-24
2023/03/08 04:19:13;;;;;;;2.05;0.45;;;15.00;67.20;;;;;;10455797;28;20120;-25
2023/03/08 04:24:16;;;;;;;0.30;0.25;;;14.90;67.80;;;;;;10458329;28;20095;-23
2023/03/08 04:29:18;;;;;;;1.33;0.30;;;14.90;67.50;;;;;;10450171;28;20126;-25
2023/03/08 04:34:20;;;;;;;0.60;0.20;;;15.30;65.00;;;;;;10452654;28;20056;-23
2023/03/08 04:39:23;;;;;;;0.77;0.47;;;15.70;62.90;;;;;;10453446;28;20051;-24
2023/03/08 04:44:25;;;;;;;0.50;0.40;;;15.90;61.50;;;;;;10454847;28;20040;-22
2023/03/08 04:49:27;;;;;;;2.23;0.37;;;16.10;60.80;;;;;;10462234;28;20398;-22
2023/03/08 04:54:30;;;;;;;2.65;1.35;;;16.30;60.40;;;;;;10454467;28;20134;-23
2023/03/08 04:59:32;;;;;;;0.55;0.40;;;16.40;60.10;;;;;;10452574;28;20434;-22
2023/03/08 05:04:34;;;;;;;0.80;0.40;;;16.50;59.80;;;;;;10454025;28;20132;-23
2023/03/08 05:09:38;;;;;;;0.45;0.32;;;16.50;59.50;;;;;;10456639;28;20122;-22
2023/03/08 05:14:40;;;;;;;2.40;0.50;;;16.60;59.50;;;;;;10452731;28;20053;-23
2023/03/08 05:19:41;;;;;;;0.47;0.37;;;16.70;59.40;;;;;;10452197;28;20378;-24
2023/03/08 05:24:45;;;;;;;1.63;0.60;;;16.80;59.20;;;;;;10452153;28;20475;-23
2023/03/08 05:29:47;;;;;;;2.25;0.88;;;16.80;59.20;;;;;;10451206;28;20978;-24
2023/03/08 05:34:50;;;;;;;0.32;0.30;;;16.80;59.30;;;;;;10451701;28;20511;-24
2023/03/08 05:39:53;;;;;;;1.00;0.50;;;16.80;59.40;;;;;;10444879;28;20045;-22
2023/03/08 05:44:55;;;;;;;1.80;0.60;;;16.80;59.50;;;;;;10448982;28;20553;-23
2023/03/08 05:49:57;;;;;;;0.97;0.57;;;16.80;59.40;;;;;;10448219;28;20059;-23
2023/03/08 05:55:00;;;;;;;1.15;0.70;;;16.80;59.40;;;;;;10450270;28;20145;-25
2023/03/08 06:00:03;;;;;;;2.38;0.70;;;16.80;59.50;;;;;;10450504;28;20433;-23
2023/03/08 06:05:05;;;;;;;0.75;0.60;;;16.80;59.30;;;;;;10450405;28;20048;-23
2023/03/08 06:10:10;;;;;;;0.43;0.38;;;16.80;59.20;;;;;;10445725;28;20461;-24
2023/03/08 06:15:12;;;;;;;1.95;0.68;;;16.80;59.20;;;;;;10446394;28;20122;-23
2023/03/08 06:20:15;;;;;;;;;;;16.90;59.10;;;;;;10446876;28;20045;-24
2023/03/08 06:25:18;;;;;;;0.90;0.57;;;16.80;59.10;;;;;;10447063;28;19927;-22
2023/03/08 06:30:20;;;;;;;0.90;0.55;;;16.90;59.00;;;;;;10445198;28;20057;-23
2023/03/08 06:35:22;;;;;;;1.40;0.50;;;16.80;59.00;;;;;;10433033;28;20048;-23
2023/03/08 06:40:25;;;;;;;2.78;0.80;;;16.80;59.00;;;;;;10443952;28;20044;-24
2023/03/08 06:45:27;;;;;;;1.10;0.70;;;16.80;59.30;;;;;;10443692;28;20453;-25
2023/03/08 06:50:29;;;;;;;3.13;0.83;;;16.20;62.50;;;;;;10444380;28;20573;-23
2023/03/08 06:55:34;;;;;;;2.53;1.00;;;16.00;64.40;;;;;;10433410;28;20068;-23
2023/03/08 07:00:37;;;;;;;2.15;1.10;;;16.10;64.30;;;;;;10435538;28;20151;-23
2023/03/08 07:15:17;;;;;;;5.10;3.22;;;16.30;62.00;;;;;;10554752;27;20417;-21
2023/03/08 07:20:20;;;;;;;24.92;7.40;;;16.50;61.50;;;;;;10516620;28;20055;-22
2023/03/08 07:25:22;;;;;;;19.48;6.78;;;16.20;62.90;;;;;;10522273;28;20045;-24
2023/03/08 07:30:26;;;;;;;10.23;5.43;;;16.40;62.00;;;;;;10523681;28;20040;-22
2023/03/08 07:35:27;;;;;;;13.90;6.28;;;16.40;61.80;;;;;;10507238;28;20132;-22
2023/03/08 07:40:29;;;;;;;15.63;7.37;;;16.40;61.60;;;;;;10517845;28;20041;-26
2023/03/08 07:45:33;;;;;;;7.73;4.20;;;16.40;61.20;;;;;;10517232;28;20052;-25
2023/03/08 07:50:35;;;;;;;12.65;6.38;;;16.50;61.00;;;;;;10522598;28;20059;-23
2023/03/08 07:55:37;;;;;;;11.98;4.80;;;16.60;60.80;;;;;;10516011;28;20424;-24
2023/03/08 08:00:40;;;;;;;16.80;8.13;;;16.60;60.90;;;;;;10515055;28;20052;-21
2023/03/08 08:05:42;;;;;;;7.38;3.72;;;16.60;61.10;;;;;;10517091;28;20044;-24
2023/03/08 08:10:44;;;;;;;9.40;3.47;;;16.60;61.10;;;;;;10523000;28;20527;-24
2023/03/08 08:15:47;;;;;;;11.37;4.57;;;16.50;61.40;;;;;;10510602;28;20081;-24
2023/03/08 08:20:49;;;;;;;12.73;6.28;;;16.50;61.40;;;;;;10514015;28;20428;-26
2023/03/08 08:25:51;;;;;;;135.27;15.73;;;16.60;61.60;;;;;;10483792;28;20068;-22
2023/03/08 08:30:59;;;;;;;137.27;16.93;;;16.00;65.90;;;;;;10487951;28;20536;-24
2023/03/08 08:36:04;;;;;;;253.43;23.10;;;15.80;67.40;;;;;;10483744;28;20069;-23
2023/03/08 08:41:07;;;;;;;265.33;31.02;;;15.60;69.30;;;;;;10486460;28;20094;-23
2023/03/08 08:46:11;;;;;;;238.88;27.58;;;15.60;74.20;;;;;;10499670;28;20676;-23
2023/03/08 08:51:14;;;;;;;301.55;31.20;;;16.00;72.50;;;;;;10493522;28;20075;-23
2023/03/08 08:56:19;;;;;;;282.50;33.00;;;15.90;73.40;;;;;;10470397;28;20486;-24
2023/03/08 09:01:24;;;;;;;328.90;34.72;;;16.30;73.00;;;;;;10492967;28;20063;-24
2023/03/08 09:06:28;;;;;;;325.95;38.05;;;15.90;74.40;;;;;;10500465;28;20109;-24
2023/03/08 09:11:30;;;;;;;613.20;68.90;;;15.80;76.00;;;;;;10478554;28;20661;-24
2023/03/08 09:16:36;;;;;;;481.40;50.53;;;15.70;79.50;;;;;;10488066;28;20044;-26
2023/03/08 09:21:38;;;;;;;427.02;53.38;;;15.90;77.60;;;;;;10493561;28;20106;-24
2023/03/08 09:26:40;;;;;;;291.40;34.58;;;15.90;77.50;;;;;;10479929;28;20128;-24
2023/03/08 09:31:44;;;;;;;131.30;19.17;;;16.10;71.60;;;;;;10484227;28;20068;-24
2023/03/08 09:36:46;;;;;;;69.75;15.25;;;16.40;68.60;;;;;;10500742;28;20040;-24
2023/03/08 09:41:51;;;;;;;66.35;12.57;;;16.50;67.70;;;;;;10482968;28;20129;-24
2023/03/08 09:46:59;;;;;;;165.45;22.30;;;16.40;68.60;;;;;;10489033;28;20590;-22
2023/03/08 09:52:05;;;;;;;203.52;27.65;;;16.10;73.00;;;;;;10494828;28;20075;-23
2023/03/08 09:57:14;;;;;;;230.25;35.13;;;15.90;76.50;;;;;;10483526;28;20175;-22
2023/03/08 10:02:25;;;;;;;216.23;29.80;;;15.70;78.50;;;;;;10478145;28;20142;-24
2023/03/08 10:07:35;;;;;;;203.18;30.63;;;15.80;78.10;;;;;;10468406;28;20096;-23
2023/03/08 10:12:58;;;;;;;261.55;36.75;;;15.70;78.00;;;;;;10480388;28;20137;-24
2023/03/08 10:18:09;;;;;;;188.80;30.75;;;15.80;75.80;;;;;;10490746;28;20039;-24
2023/03/08 10:23:15;;;;;;;216.52;29.23;;;15.70;80.60;;;;;;10488211;28;20043;-26
2023/03/08 10:28:19;;;;;;;201.70;33.53;;;15.70;80.30;;;;;;10488337;28;20067;-24
2023/03/08 10:33:24;;;;;;;275.40;39.97;;;15.70;78.50;;;;;;10484677;28;20511;-24
2023/03/08 10:38:28;;;;;;;250.85;38.30;;;15.80;81.30;;;;;;10467504;28;20049;-24
2023/03/08 10:43:33;;;;;;;233.52;35.75;;;15.80;84.30;;;;;;10482567;28;20068;-24
2023/03/08 10:48:39;;;;;;;214.50;33.50;;;15.70;85.80;;;;;;10486114;28;20370;-23
2023/03/08 10:53:52;;;;;;;132.77;25.20;;;15.70;86.70;;;;;;10480450;28;20110;-23
2023/03/08 10:58:57;;;;;;;138.80;21.15;;;15.90;84.20;;;;;;10483199;28;20121;-23
2023/03/08 11:04:02;;;;;;;122.20;23.02;;;15.90;85.30;;;;;;10478446;28;20116;-22
2023/03/08 11:09:19;;;;;;;196.88;30.00;;;16.00;81.40;;;;;;10493757;28;20040;-24
2023/03/08 11:14:21;;;;;;;268.05;37.60;;;16.00;81.10;;;;;;10481872;28;20045;-24
2023/03/08 11:19:35;;;;;;;340.80;45.33;;;16.10;82.50;;;;;;10482122;28;20352;-22
2023/03/08 11:24:55;;;;;;;265.30;36.17;;;16.20;82.60;;;;;;10478416;28;20037;-23
2023/03/08 11:30:07;;;;;;;360.13;47.78;;;16.10;83.70;;;;;;10486781;28;20036;-25
2023/03/08 11:35:22;;;;;;;436.70;55.65;;;16.20;83.50;;;;;;10481215;28;20565;-25
2023/03/08 11:40:26;;;;;;;422.30;60.83;;;16.20;82.60;;;;;;10491746;28;20508;-23
2023/03/08 11:45:34;;;;;;;409.20;51.83;;;16.20;81.50;;;;;;10470298;28;20051;-24
2023/03/08 11:50:42;;;;;;;460.58;62.95;;;16.40;80.60;;;;;;10475041;28;20041;-23
2023/03/08 11:56:08;;;;;;;510.00;69.53;;;16.20;85.90;;;;;;10488252;28;20730;-24
2023/03/08 12:01:16;;;;;;;539.60;74.20;;;16.30;87.80;;;;;;10484286;28;20063;-23
2023/03/08 12:06:25;;;;;;;477.90;63.92;;;16.30;87.40;;;;;;10494656;28;20071;-24
2023/03/08 12:11:31;;;;;;;432.60;56.65;;;16.40;90.30;;;;;;10495268;28;20099;-24
2023/03/08 12:16:40;;;;;;;448.33;58.13;;;16.30;84.30;;;;;;10493979;28;20068;-23
2023/03/08 12:21:48;;;;;;;458.23;61.63;;;16.30;84.70;;;;;;10474568;28;20056;-23
2023/03/08 12:26:56;;;;;;;516.97;65.38;;;16.30;85.60;;;;;;10501424;28;20127;-24
2023/03/08 12:31:59;;;;;;;539.28;74.60;;;16.40;84.40;;;;;;10501758;28;20142;-24
2023/03/08 12:37:02;;;;;;;602.40;76.63;;;16.30;87.40;;;;;;10484469;28;20533;-24
2023/03/08 12:42:15;;;;;;;623.42;79.97;;;16.40;86.80;;;;;;10493817;28;20040;-25
2023/03/08 12:47:20;;;;;;;547.13;74.25;;;16.40;90.90;;;;;;10491762;28;20040;-24
2023/03/08 12:52:30;;;;;;;651.88;84.55;;;16.40;87.00;;;;;;10488755;28;20052;-23
2023/03/08 12:57:34;;;;;;;647.10;82.20;;;16.40;88.30;;;;;;10491773;28;20056;-23
2023/03/08 13:02:36;;;;;;;554.38;65.82;;;16.40;87.30;;;;;;10483051;28;20106;-25
2023/03/08 13:07:52;;;;;;;545.10;69.50;;;16.50;86.10;;;;;;10503315;28;20477;-24
2023/03/08 13:13:15;;;;;;;513.92;65.70;;;16.50;89.60;;;;;;10501413;28;20565;-24
2023/03/08 13:18:19;;;;;;;363.13;48.20;;;16.50;87.30;;;;;;10491323;28;20126;-23
2023/03/08 13:23:29;;;;;;;357.63;46.13;;;16.50;85.20;;;;;;10491359;28;20044;-23
2023/03/08 13:28:34;;;;;;;343.67;43.25;;;16.60;87.60;;;;;;10486536;28;20076;-23
2023/03/08 13:33:40;;;;;;;343.35;44.40;;;16.60;85.80;;;;;;10493684;28;20143;-22
2023/03/08 13:38:43;;;;;;;356.00;42.53;;;16.60;88.20;;;;;;10490948;28;20127;-24
2023/03/08 13:43:45;;;;;;;154.80;22.48;;;16.90;86.40;;;;;;10498047;28;20037;-24
2023/03/08 13:48:47;;;;;;;96.17;17.83;;;17.50;72.10;;;;;;10483057;28;20110;-23
2023/03/08 13:53:50;;;;;;;66.55;12.93;;;17.80;68.50;;;;;;10473896;28;20594;-24
2023/03/08 13:58:54;;;;;;;60.70;12.13;;;17.90;66.40;;;;;;10483056;28;20064;-24
2023/03/08 14:03:57;;;;;;;48.47;9.98;;;18.10;65.60;;;;;;10486858;28;20123;-23
2023/03/08 14:09:02;;;;;;;48.90;8.68;;;18.10;64.20;;;;;;10498051;28;20113;-23
2023/03/08 14:14:08;;;;;;;32.30;7.05;;;18.10;64.70;;;;;;10494552;28;20068;-24
2023/03/08 14:19:11;;;;;;;32.95;6.10;;;18.30;62.80;;;;;;10484165;28;20051;-24
2023/03/08 14:24:20;;;;;;;33.90;6.05;;;18.40;62.50;;;;;;10491811;28;20080;-25
2023/03/08 14:29:24;;;;;;;24.00;6.75;;;18.40;62.60;;;;;;10499803;28;20116;-23
2023/03/08 14:34:27;;;;;;;18.38;5.22;;;18.40;62.20;;;;;;10486427;28;20132;-23
2023/03/08 14:39:32;;;;;;;15.65;4.57;;;18.60;61.40;;;;;;10487364;28;20040;-24
2023/03/08 14:44:35;;;;;;;14.07;4.22;;;18.50;61.50;;;;;;10486098;28;20044;-25
2023/03/08 14:49:37;;;;;;;;;;;18.50;61.30;;;;;;10505073;28;20068;-24
2023/03/08 14:54:40;;;;;;;12.18;3.72;;;18.50;61.10;;;;;;10484567;28;19917;-24
2023/03/08 14:59:42;;;;;;;16.17;4.45;;;18.50;61.20;;;;;;10484945;28;20117;-23
2023/03/08 15:04:44;;;;;;;;;;;18.50;61.20;;;;;;10491790;28;20047;-24
2023/03/08 15:09:49;;;;;;;151.32;17.90;;;18.50;61.40;;;;;;10475683;28;20558;-24
2023/03/08 15:14:51;;;;;;;343.17;38.15;;;18.10;64.40;;;;;;10482197;28;20497;-25
2023/03/08 15:19:55;;;;;;;316.02;36.90;;;18.00;67.20;;;;;;10488842;28;20060;-23
2023/03/08 15:24:59;;;;;;;328.95;38.05;;;17.80;69.40;;;;;;10496606;28;20333;-23
2023/03/08 15:30:01;;;;;;;361.42;38.38;;;18.00;67.60;;;;;;10497171;28;20374;-24
2023/03/08 15:35:02;;;;;;;345.17;37.78;;;18.00;68.80;;;;;;10482162;28;20147;-24
2023/03/08 15:40:11;;;;;;;363.50;37.28;;;17.90;68.20;;;;;;10478382;28;20094;-24
2023/03/08 15:45:13;;;;;;;412.83;39.50;;;17.90;68.40;;;;;;10489946;28;20044;-24
2023/03/08 15:50:18;;;;;;;373.20;34.78;;;17.80;68.90;;;;;;10489502;28;20083;-25
2023/03/08 15:55:23;;;;;;;376.48;34.88;;;17.80;68.60;;;;;;10489132;28;20864;-24
2023/03/08 16:00:26;;;;;;;261.80;29.25;;;17.80;69.50;;;;;;10494824;28;20075;-25
2023/03/08 16:05:27;;;;;;;163.73;18.75;;;17.90;67.00;;;;;;10491333;28;20393;-24
2023/03/08 16:10:39;;;;;;;217.45;21.50;;;18.00;66.70;;;;;;10495721;28;20524;-24
2023/03/08 16:15:40;;;;;;;234.82;25.75;;;17.80;69.30;;;;;;10494874;28;20036;-24
2023/03/08 16:20:44;;;;;;;206.70;24.47;;;17.70;70.30;;;;;;10490953;28;20723;-25
2023/03/08 16:25:59;;;;;;;139.27;18.70;;;17.90;67.90;;;;;;10481286;28;20044;-24
2023/03/08 16:31:01;;;;;;;142.13;18.05;;;17.80;68.60;;;;;;10495614;28;20079;-30
2023/03/08 16:36:03;;;;;;;119.75;14.23;;;17.80;69.70;;;;;;10497608;28;20075;-23
2023/03/08 16:41:06;;;;;;;148.13;17.38;;;17.80;68.80;;;;;;10480548;28;20041;-23
2023/03/08 16:46:14;;;;;;;164.80;20.83;;;17.70;71.20;;;;;;10496520;28;20068;-23
2023/03/08 16:51:19;;;;;;;174.27;23.30;;;17.60;71.10;;;;;;10494851;28;20127;-25
2023/03/08 16:56:23;;;;;;;92.03;14.27;;;17.50;72.50;;;;;;10492233;28;20056;-23
2023/03/08 17:01:28;;;;;;;66.95;10.13;;;17.80;66.70;;;;;;10506770;28;20123;-28
2023/03/08 17:06:31;;;;;;;38.85;8.13;;;17.80;66.20;;;;;;10478022;28;20041;-23
2023/03/08 17:11:35;;;;;;;69.85;10.13;;;17.90;65.60;;;;;;10478905;28;20048;-24
2023/03/08 17:16:38;;;;;;;49.78;9.13;;;17.70;68.70;;;;;;10498614;28;20049;-24
2023/03/08 17:21:41;;;;;;;56.75;9.30;;;17.80;66.60;;;;;;10496887;28;20072;-24
2023/03/08 17:26:46;;;;;;;43.38;8.75;;;17.90;65.50;;;;;;10488179;28;20037;-23
2023/03/08 17:31:48;;;;;;;19.48;5.13;;;17.90;65.10;;;;;;10494650;28;20374;-23
2023/03/08 17:36:50;;;;;;;12.82;3.90;;;17.90;65.30;;;;;;10499127;28;20076;-22
2023/03/08 17:41:53;;;;;;;21.45;5.55;;;17.90;65.90;;;;;;10487641;28;20128;-25
2023/03/08 17:46:55;;;;;;;31.02;5.68;;;17.80;65.70;;;;;;10488499;28;20050;-24
2023/03/08 17:51:57;;;;;;;12.50;4.03;;;17.90;65.80;;;;;;10482601;28;20040;-22
2023/03/08 17:57:00;;;;;;;13.73;3.77;;;17.90;65.10;;;;;;10492061;28;20132;-23
2023/03/08 18:02:02;;;;;;;10.82;3.60;;;18.00;65.90;;;;;;10491069;28;20567;-23
2023/03/08 18:07:04;;;;;;;9.30;2.85;;;17.90;65.20;;;;;;10492861;28;20490;-24
2023/03/08 18:12:08;;;;;;;;;;;18.10;64.50;;;;;;10493017;28;20056;-23
2023/03/08 18:17:11;;;;;;;12.45;3.28;;;18.10;64.10;;;;;;10496000;28;19916;-24
2023/03/08 18:22:12;;;;;;;;;;;18.00;64.90;;;;;;10497657;28;20071;-25
2023/03/08 18:27:16;;;;;;;11.45;3.40;;;18.00;65.10;;;;;;10493376;28;20037;-25
2023/03/08 18:32:18;;;;;;;21.80;4.22;;;17.80;66.80;;;;;;10486103;28;20043;-23
2023/03/08 18:37:20;;;;;;;39.85;7.55;;;17.50;68.90;;;;;;10485672;28;20657;-23
2023/03/08 18:42:23;;;;;;;23.65;6.35;;;17.50;69.80;;;;;;10474422;28;20036;-24
2023/03/08 18:47:25;;;;;;;39.72;10.25;;;17.40;70.00;;;;;;10490733;28;20043;-23
2023/03/08 18:52:27;;;;;;;35.88;11.02;;;17.30;72.40;;;;;;10481527;28;20045;-23
2023/03/08 18:57:31;;;;;;;37.92;9.90;;;17.40;71.40;;;;;;10491446;28;20052;-23
2023/03/08 19:02:33;;;;;;;34.15;11.05;;;17.40;71.40;;;;;;10485222;28;20040;-23
2023/03/08 19:07:35;;;;;;;41.80;12.35;;;17.30;72.60;;;;;;10498958;28;20107;-24
2023/03/08 19:12:38;;;;;;;40.85;11.75;;;17.40;71.10;;;;;;10480815;28;20056;-24
2023/03/08 19:17:40;;;;;;;47.17;13.38;;;17.40;71.40;;;;;;10482992;28;20072;-23
2023/03/08 19:22:42;;;;;;;27.30;10.65;;;17.30;73.50;;;;;;10490536;28;20086;-24
2023/03/08 19:27:45;;;;;;;16.40;6.20;;;17.50;71.10;;;;;;10485023;28;20126;-25
2023/03/08 19:32:48;;;;;;;14.25;4.90;;;17.90;68.30;;;;;;10486151;28;20052;-23
2023/03/08 19:37:50;;;;;;;14.43;4.57;;;17.90;68.10;;;;;;10484769;28;20090;-24
2023/03/08 19:42:53;;;;;;;16.30;5.13;;;17.90;68.20;;;;;;10482148;28;20057;-23
2023/03/08 19:47:55;;;;;;;13.65;3.45;;;18.00;67.60;;;;;;10483296;28;20068;-24
2023/03/08 19:52:57;;;;;;;8.52;3.72;;;17.80;68.50;;;;;;10479635;28;20763;-24
2023/03/08 19:58:00;;;;;;;7.23;2.60;;;17.90;68.50;;;;;;10480878;28;20045;-23
2023/03/08 20:03:02;;;;;;;12.40;2.83;;;17.90;68.30;;;;;;10492016;28;20924;-24
2023/03/08 20:08:04;;;;;;;8.43;2.88;;;17.90;68.40;;;;;;10486406;28;20040;-22
2023/03/08 20:13:08;;;;;;;12.38;3.08;;;17.90;68.50;;;;;;10486274;28;20068;-24
2023/03/08 20:18:10;;;;;;;13.15;3.50;;;17.90;68.40;;;;;;10476182;28;20488;-24
2023/03/08 20:23:12;;;;;;;10.40;2.95;;;17.90;67.80;;;;;;10495060;28;20037;-23
2023/03/08 20:28:16;;;;;;;12.18;4.10;;;17.90;67.60;;;;;;10483326;28;20055;-24
2023/03/08 20:33:18;;;;;;;26.90;4.18;;;17.90;67.40;;;;;;10496219;28;20040;-24
2023/03/08 20:38:20;;;;;;;22.95;3.55;;;17.80;67.40;;;;;;10490180;28;20033;-24
2023/03/08 20:43:24;;;;;;;14.25;3.05;;;17.80;67.50;;;;;;10492369;28;20075;-23
2023/03/08 20:48:27;;;;;;;14.18;4.53;;;17.80;67.10;;;;;;10490618;28;20044;-24
2023/03/08 20:53:29;;;;;;;14.32;6.28;;;17.90;66.60;;;;;;10490000;28;20156;-24
2023/03/08 20:58:33;;;;;;;;;;;17.80;66.20;;;;;;10492468;28;20484;-24
2023/03/08 21:03:34;;;;;;;8.30;3.78;;;17.80;66.20;;;;;;10502021;28;19989;-23
2023/03/08 21:08:36;;;;;;;6.80;2.75;;;17.90;65.70;;;;;;10477912;28;20053;-25
2023/03/08 21:13:40;;;;;;;10.98;4.85;;;17.80;65.60;;;;;;10489995;28;20354;-23
2023/03/08 21:18:44;;;;;;;13.50;3.72;;;17.90;65.50;;;;;;10488801;28;20119;-23
2023/03/08 21:23:46;;;;;;;6.53;2.72;;;17.90;65.50;;;;;;10483607;28;20086;-23
2023/03/08 21:28:51;;;;;;;10.63;4.05;;;17.80;65.40;;;;;;10483879;28;20105;-23
2023/03/08 21:33:53;;;;;;;20.90;4.47;;;17.80;65.30;;;;;;10488578;28;20052;-23
2023/03/08 21:38:56;;;;;;;12.15;3.97;;;17.80;65.30;;;;;;10486664;28;20040;-24
2023/03/08 21:44:01;;;;;;;12.60;4.60;;;17.80;65.30;;;;;;10488514;28;20036;-23
2023/03/08 21:49:04;;;;;;;9.07;3.22;;;17.70;65.50;;;;;;10509674;28;20467;-24
2023/03/08 21:54:06;;;;;;;6.95;3.38;;;17.70;65.30;;;;;;10486431;28;20143;-21
2023/03/08 21:59:09;;;;;;;6.85;2.50;;;17.60;65.60;;;;;;10472220;28;20048;-24
2023/03/08 22:04:11;;;;;;;5.75;2.60;;;17.70;65.40;;;;;;10481122;28;20126;-23
2023/03/08 22:09:13;;;;;;;7.95;3.45;;;17.60;65.30;;;;;;10478075;28;20062;-23
2023/03/08 22:14:16;;;;;;;4.07;2.22;;;17.60;65.30;;;;;;10487313;28;20071;-24
2023/03/08 22:19:18;;;;;;;8.15;3.42;;;17.50;65.50;;;;;;10485330;28;20549;-23
2023/03/08 22:24:20;;;;;;;9.57;3.03;;;17.50;65.70;;;;;;10482871;28;20128;-25
2023/03/08 22:29:23;;;;;;;11.93;4.03;;;17.50;65.50;;;;;;10485941;28;20136;-25
2023/03/08 22:34:25;;;;;;;5.93;3.10;;;17.40;65.80;;;;;;10480691;28;20068;-25
2023/03/08 22:39:27;;;;;;;7.67;3.50;;;17.40;65.60;;;;;;10479604;28;20516;-25
2023/03/08 22:44:30;;;;;;;;;;;17.40;66.00;;;;;;10473543;28;20498;-24
2023/03/08 22:49:33;;;;;;;5.65;3.05;;;17.40;65.70;;;;;;10481870;28;19964;-24
2023/03/08 22:54:35;;;;;;;7.70;3.08;;;17.30;65.70;;;;;;10485318;28;20465;-23
2023/03/08 22:59:38;;;;;;;6.13;3.00;;;17.30;65.80;;;;;;10482677;28;20409;-23
2023/03/08 23:04:40;;;;;;;6.15;2.75;;;17.20;66.10;;;;;;10483926;28;20086;-23
2023/03/08 23:09:42;;;;;;;5.18;2.80;;;17.20;66.00;;;;;;10483568;28;20128;-23
2023/03/08 23:14:46;;;;;;;5.15;2.42;;;17.30;65.90;;;;;;10479774;28;20080;-22
2023/03/08 23:19:49;;;;;;;4.50;2.40;;;17.20;65.90;;;;;;10486969;28;20391;-22
2023/03/08 23:24:51;;;;;;;6.90;1.60;;;17.30;65.90;;;;;;10487146;28;20473;-25
2023/03/08 23:29:54;;;;;;;3.97;2.53;;;17.30;66.00;;;;;;10489801;28;20114;-25
2023/03/08 23:34:56;;;;;;;5.00;2.03;;;17.20;66.20;;;;;;10484611;28;20098;-24
2023/03/08 23:39:58;;;;;;;2.30;1.67;;;17.10;66.00;;;;;;10486635;28;20048;-23
2023/03/08 23:45:01;;;;;;;7.13;3.97;;;17.00;66.40;;;;;;10490548;28;20135;-23
2023/03/08 23:50:04;;;;;;;7.68;3.28;;;17.10;66.20;;;;;;10494001;28;20533;-22
2023/03/08 23:55:06;;;;;;;2.55;1.77;;;17.00;66.40;;;;;;10494655;28;20136;-23
